sensor_id;sensor_type;location;lat;lon;timestamp;pressure;altitude;pressure_sealevel;temperature;humidity
77147;BME280;66121;52.584;9.694;2023-02-10T00:01:35;103043.16;;;1.78;82.32
77147;BME280;66121;52.584;9.694;2023-02-10T00:04:01;103044.50;;;1.80;82.21
77147;BME280;66121;52.584;9.694;2023-02-10T00:06:27;103038.81;;;1.82;82.83
77147;BME280;66121;52.584;9.694;2023-02-10T00:08:55;103033.09;;;1.78;83.28
77147;BME280;66121;52.584;9.694;2023-02-10T00:11:21;103049.97;;;1.85;82.92
77147;BME280;66121;52.584;9.694;2023-02-10T00:14:05;103038.00;;;1.81;83.31
77147;BME280;66121;52.584;9.694;2023-02-10T00:16:31;103039.34;;;1.79;83.10
77147;BME280;66121;52.584;9.694;2023-02-10T00:18:56;103046.44;;;1.90;82.99
77147;BME280;66121;52.584;9.694;2023-02-10T00:21:21;103052.72;;;1.90;83.77
77147;BME280;66121;52.584;9.694;2023-02-10T00:23:47;103043.72;;;1.90;83.36
77147;BME280;66121;52.584;9.694;2023-02-10T00:26:12;103045.34;;;1.81;84.04
77147;BME280;66121;52.584;9.694;2023-02-10T00:28:38;103045.88;;;1.83;83.82
77147;BME280;66121;52.584;9.694;2023-02-10T00:31:08;103051.06;;;1.79;83.98
77147;BME280;66121;52.584;9.694;2023-02-10T00:33:34;103058.13;;;1.85;83.99
77147;BME280;66121;52.584;9.694;2023-02-10T00:36:02;103047.19;;;1.70;84.62
77147;BME280;66121;52.584;9.694;2023-02-10T00:38:28;103030.00;;;1.60;84.39
77147;BME280;66121;52.584;9.694;2023-02-10T00:40:53;103051.00;;;1.64;84.76
77147;BME280;66121;52.584;9.694;2023-02-10T00:43:18;103049.38;;;1.68;84.20
77147;BME280;66121;52.584;9.694;2023-02-10T00:45:44;103053.47;;;1.76;84.53
77147;BME280;66121;52.584;9.694;2023-02-10T00:48:09;103038.50;;;1.73;84.05
77147;BME280;66121;52.584;9.694;2023-02-10T00:50:34;103047.56;;;1.89;84.35
77147;BME280;66121;52.584;9.694;2023-02-10T00:52:59;103053.28;;;1.98;83.57
77147;BME280;66121;52.584;9.694;2023-02-10T00:55:25;103059.28;;;2.00;83.98
77147;BME280;66121;52.584;9.694;2023-02-10T00:57:50;103055.19;;;2.02;83.76
77147;BME280;66121;52.584;9.694;2023-02-10T01:00:15;103019.19;;;1.75;84.57
77147;BME280;66121;52.584;9.694;2023-02-10T01:02:41;103042.09;;;1.84;84.41
77147;BME280;66121;52.584;9.694;2023-02-10T01:05:06;103036.91;;;1.87;84.49
77147;BME280;66121;52.584;9.694;2023-02-10T01:07:32;103035.81;;;1.83;85.41
77147;BME280;66121;52.584;9.694;2023-02-10T01:09:57;103034.47;;;1.91;85.16
77147;BME280;66121;52.584;9.694;2023-02-10T01:12:22;103025.22;;;1.82;84.96
77147;BME280;66121;52.584;9.694;2023-02-10T01:14:48;103043.72;;;1.85;85.05
77147;BME280;66121;52.584;9.694;2023-02-10T01:17:15;103041.56;;;1.87;85.79
77147;BME280;66121;52.584;9.694;2023-02-10T01:19:40;103045.91;;;1.88;85.35
77147;BME280;66121;52.584;9.694;2023-02-10T01:22:05;103042.13;;;1.94;85.22
77147;BME280;66121;52.584;9.694;2023-02-10T01:24:30;103053.25;;;1.87;85.37
77147;BME280;66121;52.584;9.694;2023-02-10T01:26:56;103052.16;;;1.88;85.67
77147;BME280;66121;52.584;9.694;2023-02-10T01:29:21;103038.28;;;1.90;85.40
77147;BME280;66121;52.584;9.694;2023-02-10T01:31:46;103039.13;;;1.95;84.70
77147;BME280;66121;52.584;9.694;2023-02-10T01:34:12;103027.41;;;2.00;84.93
77147;BME280;66121;52.584;9.694;2023-02-10T01:36:37;103033.97;;;1.99;85.54
77147;BME280;66121;52.584;9.694;2023-02-10T01:39:02;103037.78;;;2.03;85.81
77147;BME280;66121;52.584;9.694;2023-02-10T01:41:28;103042.41;;;2.08;85.25
77147;BME280;66121;52.584;9.694;2023-02-10T01:44:03;103048.69;;;2.08;85.04
77147;BME280;66121;52.584;9.694;2023-02-10T01:46:31;103045.16;;;2.13;85.09
77147;BME280;66121;52.584;9.694;2023-02-10T01:49:00;103044.63;;;2.16;85.48
77147;BME280;66121;52.584;9.694;2023-02-10T01:51:33;103051.16;;;2.15;84.90
77147;BME280;66121;52.584;9.694;2023-02-10T01:53:58;103038.88;;;2.12;84.99
77147;BME280;66121;52.584;9.694;2023-02-10T01:56:24;103040.25;;;2.10;85.55
77147;BME280;66121;52.584;9.694;2023-02-10T01:58:50;103027.19;;;2.07;85.66
77147;BME280;66121;52.584;9.694;2023-02-10T02:01:17;103026.06;;;2.08;85.99
77147;BME280;66121;52.584;9.694;2023-02-10T02:03:42;103026.94;;;2.18;85.63
77147;BME280;66121;52.584;9.694;2023-02-10T02:06:08;103030.47;;;2.24;85.83
77147;BME280;66121;52.584;9.694;2023-02-10T02:08:34;103015.75;;;2.20;85.45
77147;BME280;66121;52.584;9.694;2023-02-10T02:11:20;103027.47;;;2.25;85.83
77147;BME280;66121;52.584;9.694;2023-02-10T02:19:33;103026.66;;;2.30;85.83
77147;BME280;66121;52.584;9.694;2023-02-10T02:22:21;103021.50;;;2.33;85.71
77147;BME280;66121;52.584;9.694;2023-02-10T02:34:07;103037.31;;;2.31;85.34
77147;BME280;66121;52.584;9.694;2023-02-10T02:36:49;103018.22;;;2.26;85.11
77147;BME280;66121;52.584;9.694;2023-02-10T02:39:17;103034.81;;;2.25;85.39
77147;BME280;66121;52.584;9.694;2023-02-10T02:41:42;103027.22;;;2.22;85.48
77147;BME280;66121;52.584;9.694;2023-02-10T02:44:08;103031.56;;;2.23;85.53
77147;BME280;66121;52.584;9.694;2023-02-10T02:46:56;103031.84;;;2.31;85.69
77147;BME280;66121;52.584;9.694;2023-02-10T02:49:42;103017.13;;;2.27;85.93
77147;BME280;66121;52.584;9.694;2023-02-10T02:52:20;103027.47;;;2.25;85.29
77147;BME280;66121;52.584;9.694;2023-02-10T02:55:03;103008.16;;;2.22;85.64
77147;BME280;66121;52.584;9.694;2023-02-10T03:00:05;103034.59;;;2.36;85.68
77147;BME280;66121;52.584;9.694;2023-02-10T03:02:34;103038.09;;;2.37;85.40
77147;BME280;66121;52.584;9.694;2023-02-10T03:05:02;103016.59;;;2.30;85.60
77147;BME280;66121;52.584;9.694;2023-02-10T03:07:27;103031.88;;;2.36;85.41
77147;BME280;66121;52.584;9.694;2023-02-10T03:09:52;103022.88;;;2.36;85.87
77147;BME280;66121;52.584;9.694;2023-02-10T03:12:18;103024.75;;;2.30;85.47
77147;BME280;66121;52.584;9.694;2023-02-10T03:14:43;103039.22;;;2.36;85.86
77147;BME280;66121;52.584;9.694;2023-02-10T03:17:09;103033.47;;;2.37;85.79
77147;BME280;66121;52.584;9.694;2023-02-10T03:19:34;103027.78;;;2.29;85.91
77147;BME280;66121;52.584;9.694;2023-02-10T03:22:00;103046.03;;;2.38;85.96
77147;BME280;66121;52.584;9.694;2023-02-10T03:24:25;103041.41;;;2.44;85.55
77147;BME280;66121;52.584;9.694;2023-02-10T03:26:51;103031.06;;;2.46;85.83
77147;BME280;66121;52.584;9.694;2023-02-10T03:29:16;103040.06;;;2.46;85.89
77147;BME280;66121;52.584;9.694;2023-02-10T03:31:42;103044.69;;;2.51;85.43
77147;BME280;66121;52.584;9.694;2023-02-10T03:34:07;103026.97;;;2.43;85.58
77147;BME280;66121;52.584;9.694;2023-02-10T03:36:32;103044.66;;;2.41;86.45
77147;BME280;66121;52.584;9.694;2023-02-10T03:39:02;103039.47;;;2.44;85.97
77147;BME280;66121;52.584;9.694;2023-02-10T03:41:28;103028.56;;;2.44;85.64
77147;BME280;66121;52.584;9.694;2023-02-10T03:43:53;103039.22;;;2.46;85.87
77147;BME280;66121;52.584;9.694;2023-02-10T03:46:18;103024.78;;;2.40;85.90
77147;BME280;66121;52.584;9.694;2023-02-10T03:48:44;103037.03;;;2.48;85.42
77147;BME280;66121;52.584;9.694;2023-02-10T03:51:09;103040.06;;;2.51;85.74
77147;BME280;66121;52.584;9.694;2023-02-10T03:53:35;103041.66;;;2.52;85.76
77147;BME280;66121;52.584;9.694;2023-02-10T03:56:00;103054.22;;;2.58;85.17
77147;BME280;66121;52.584;9.694;2023-02-10T03:58:26;103036.22;;;2.52;85.42
77147;BME280;66121;52.584;9.694;2023-02-10T04:00:51;103032.97;;;2.50;85.86
77147;BME280;66121;52.584;9.694;2023-02-10T04:03:17;103038.13;;;2.47;86.02
77147;BME280;66121;52.584;9.694;2023-02-10T04:05:42;103039.22;;;2.46;85.84
77147;BME280;66121;52.584;9.694;2023-02-10T04:08:07;103031.88;;;2.51;85.52
77147;BME280;66121;52.584;9.694;2023-02-10T04:10:36;103034.59;;;2.46;86.20
77147;BME280;66121;52.584;9.694;2023-02-10T04:13:01;103039.78;;;2.48;85.84
77147;BME280;66121;52.584;9.694;2023-02-10T04:15:26;103030.50;;;2.44;86.06
77147;BME280;66121;52.584;9.694;2023-02-10T04:17:52;103044.16;;;2.54;85.62
77147;BME280;66121;52.584;9.694;2023-02-10T04:20:17;103046.56;;;2.45;85.23
77147;BME280;66121;52.584;9.694;2023-02-10T04:22:43;103038.94;;;2.47;85.67
77147;BME280;66121;52.584;9.694;2023-02-10T04:25:09;103043.56;;;2.37;85.60
77147;BME280;66121;52.584;9.694;2023-02-10T04:27:35;103050.41;;;2.34;85.13
77147;BME280;66121;52.584;9.694;2023-02-10T04:30:00;103051.47;;;2.33;86.10
77147;BME280;66121;52.584;9.694;2023-02-10T04:32:25;103043.56;;;2.27;86.02
77147;BME280;66121;52.584;9.694;2023-02-10T04:34:51;103041.38;;;2.29;85.47
77147;BME280;66121;52.584;9.694;2023-02-10T04:37:16;103029.69;;;2.33;86.37
77147;BME280;66121;52.584;9.694;2023-02-10T04:39:42;103027.22;;;2.27;86.73
77147;BME280;66121;52.584;9.694;2023-02-10T04:42:07;103031.31;;;2.24;86.47
77147;BME280;66121;52.584;9.694;2023-02-10T04:44:33;103031.56;;;2.23;86.47
77147;BME280;66121;52.584;9.694;2023-02-10T04:46:58;103039.50;;;2.29;86.36
77147;BME280;66121;52.584;9.694;2023-02-10T04:49:24;103041.91;;;2.21;86.07
77147;BME280;66121;52.584;9.694;2023-02-10T04:51:50;103032.94;;;2.25;86.32
77147;BME280;66121;52.584;9.694;2023-02-10T04:54:15;103032.69;;;2.27;86.34
77147;BME280;66121;52.584;9.694;2023-02-10T04:56:40;103041.38;;;2.29;86.54
77147;BME280;66121;52.584;9.694;2023-02-10T04:59:06;103044.94;;;2.29;86.83
77147;BME280;66121;52.584;9.694;2023-02-10T05:01:31;103036.19;;;2.32;86.54
77147;BME280;66121;52.584;9.694;2023-02-10T05:03:57;103036.78;;;2.34;85.99
77147;BME280;66121;52.584;9.694;2023-02-10T05:06:22;103029.94;;;2.27;86.15
77147;BME280;66121;52.584;9.694;2023-02-10T05:08:47;103044.13;;;2.39;86.15
77147;BME280;66121;52.584;9.694;2023-02-10T05:11:15;103047.94;;;2.38;85.95
77147;BME280;66121;52.584;9.694;2023-02-10T05:13:42;103047.09;;;2.37;86.68
77147;BME280;66121;52.584;9.694;2023-02-10T05:16:09;103056.09;;;2.33;86.06
77147;BME280;66121;52.584;9.694;2023-02-10T05:18:35;103053.91;;;2.35;85.86
77147;BME280;66121;52.584;9.694;2023-02-10T05:21:02;103046.56;;;2.30;86.14
77147;BME280;66121;52.584;9.694;2023-02-10T05:23:28;103053.91;;;2.30;86.25
77147;BME280;66121;52.584;9.694;2023-02-10T05:25:53;103040.25;;;2.20;86.76
77147;BME280;66121;52.584;9.694;2023-02-10T05:28:19;103057.69;;;2.14;86.39
77147;BME280;66121;52.584;9.694;2023-02-10T05:30:44;103048.69;;;2.08;86.13
77147;BME280;66121;52.584;9.694;2023-02-10T05:33:10;103048.69;;;2.08;87.32
77147;BME280;66121;52.584;9.694;2023-02-10T05:35:35;103045.41;;;1.96;86.75
77147;BME280;66121;52.584;9.694;2023-02-10T05:38:00;103062.56;;;1.97;86.90
77147;BME280;66121;52.584;9.694;2023-02-10T05:40:29;103052.44;;;1.97;87.73
77147;BME280;66121;52.584;9.694;2023-02-10T05:42:55;103048.91;;;1.91;87.74
77147;BME280;66121;52.584;9.694;2023-02-10T05:45:20;103053.22;;;1.82;87.63
77147;BME280;66121;52.584;9.694;2023-02-10T05:47:45;103053.75;;;1.74;87.79
77147;BME280;66121;52.584;9.694;2023-02-10T05:50:11;103061.94;;;1.79;87.67
77147;BME280;66121;52.584;9.694;2023-02-10T05:52:36;103063.00;;;1.73;87.70
77147;BME280;66121;52.584;9.694;2023-02-10T05:55:02;103070.59;;;1.66;88.12
77147;BME280;66121;52.584;9.694;2023-02-10T05:57:28;103077.66;;;1.67;87.97
77147;BME280;66121;52.584;9.694;2023-02-10T05:59:56;103073.25;;;1.56;88.33
77147;BME280;66121;52.584;9.694;2023-02-10T06:02:21;103070.25;;;1.53;88.77
77147;BME280;66121;52.584;9.694;2023-02-10T06:04:46;103074.34;;;1.55;88.17
77147;BME280;66121;52.584;9.694;2023-02-10T06:07:12;103077.88;;;1.56;88.44
77147;BME280;66121;52.584;9.694;2023-02-10T06:09:37;103073.19;;;1.41;88.74
77147;BME280;66121;52.584;9.694;2023-02-10T06:12:04;103090.66;;;1.55;88.86
77147;BME280;66121;52.584;9.694;2023-02-10T06:14:30;103085.72;;;1.47;88.89
77147;BME280;66121;52.584;9.694;2023-02-10T06:16:56;103094.72;;;1.53;89.23
77147;BME280;66121;52.584;9.694;2023-02-10T06:19:21;103098.81;;;1.55;88.41
77147;BME280;66121;52.584;9.694;2023-02-10T06:21:47;103095.00;;;1.51;88.55
77147;BME280;66121;52.584;9.694;2023-02-10T06:24:12;103104.19;;;1.45;88.87
77147;BME280;66121;52.584;9.694;2023-02-10T06:26:37;103110.75;;;1.44;88.91
77147;BME280;66121;52.584;9.694;2023-02-10T06:29:03;103110.16;;;1.42;89.18
77147;BME280;66121;52.584;9.694;2023-02-10T06:31:28;103123.75;;;1.37;89.08
77147;BME280;66121;52.584;9.694;2023-02-10T06:33:54;103121.56;;;1.34;89.34
77147;BME280;66121;52.584;9.694;2023-02-10T06:36:19;103124.50;;;1.33;89.28
77147;BME280;66121;52.584;9.694;2023-02-10T06:38:44;103132.63;;;1.27;88.94
77147;BME280;66121;52.584;9.694;2023-02-10T06:41:10;103119.63;;;1.29;89.96
77147;BME280;66121;52.584;9.694;2023-02-10T06:43:35;103136.19;;;1.28;89.25
77147;BME280;66121;52.584;9.694;2023-02-10T06:46:00;103124.38;;;1.12;89.71
77147;BME280;66121;52.584;9.694;2023-02-10T06:48:26;103128.22;;;1.16;89.54
77147;BME280;66121;52.584;9.694;2023-02-10T06:50:52;103122.22;;;1.14;89.66
77147;BME280;66121;52.584;9.694;2023-02-10T06:53:18;103134.19;;;1.13;90.01
77147;BME280;66121;52.584;9.694;2023-02-10T06:55:43;103127.09;;;1.12;90.14
77147;BME280;66121;52.584;9.694;2023-02-10T06:58:09;103130.16;;;1.21;90.72
77147;BME280;66121;52.584;9.694;2023-02-10T07:00:34;103126.81;;;1.09;89.49
77147;BME280;66121;52.584;9.694;2023-02-10T07:02:59;103130.59;;;1.08;89.62
77147;BME280;66121;52.584;9.694;2023-02-10T07:05:25;103133.09;;;1.14;90.91
77147;BME280;66121;52.584;9.694;2023-02-10T07:07:50;103130.38;;;1.14;89.75
77147;BME280;66121;52.584;9.694;2023-02-10T07:10:17;103142.91;;;1.20;90.32
77147;BME280;66121;52.584;9.694;2023-02-10T07:12:43;103139.69;;;1.23;90.56
77147;BME280;66121;52.584;9.694;2023-02-10T07:15:09;103123.38;;;1.23;90.36
77147;BME280;66121;52.584;9.694;2023-02-10T07:17:35;103137.56;;;1.30;90.51
77147;BME280;66121;52.584;9.694;2023-02-10T07:20:02;103126.41;;;1.27;90.10
77147;BME280;66121;52.584;9.694;2023-02-10T07:22:27;103126.69;;;1.30;90.18
77147;BME280;66121;52.584;9.694;2023-02-10T07:24:53;103129.38;;;1.25;90.24
77147;BME280;66121;52.584;9.694;2023-02-10T07:27:18;103142.13;;;1.25;90.52
77147;BME280;66121;52.584;9.694;2023-02-10T07:29:44;103148.69;;;1.24;90.82
77147;BME280;66121;52.584;9.694;2023-02-10T07:32:09;103138.06;;;1.27;90.57
77147;BME280;66121;52.584;9.694;2023-02-10T07:34:34;103150.38;;;1.35;90.51
77147;BME280;66121;52.584;9.694;2023-02-10T07:37:01;103148.47;;;1.36;90.52
77147;BME280;66121;52.584;9.694;2023-02-10T07:39:26;103153.09;;;1.35;90.39
77147;BME280;66121;52.584;9.694;2023-02-10T07:41:52;103158.09;;;1.48;89.82
77147;BME280;66121;52.584;9.694;2023-02-10T07:44:18;103161.63;;;1.49;89.41
77147;BME280;66121;52.584;9.694;2023-02-10T07:46:46;103164.13;;;1.55;90.35
77147;BME280;66121;52.584;9.694;2023-02-10T07:49:11;103168.81;;;1.65;90.46
77147;BME280;66121;52.584;9.694;2023-02-10T07:51:36;103164.19;;;1.65;89.83
77147;BME280;66121;52.584;9.694;2023-02-10T07:54:02;103163.38;;;1.70;90.18
77147;BME280;66121;52.584;9.694;2023-02-10T07:56:27;103156.34;;;1.74;89.85
77147;BME280;66121;52.584;9.694;2023-02-10T07:58:53;103160.19;;;1.78;89.49
77147;BME280;66121;52.584;9.694;2023-02-10T08:01:18;103163.41;;;1.75;89.47
77147;BME280;66121;52.584;9.694;2023-02-10T08:03:43;103168.13;;;1.84;89.58
77147;BME280;66121;52.584;9.694;2023-02-10T08:06:09;103165.13;;;1.86;89.14
77147;BME280;66121;52.584;9.694;2023-02-10T08:08:35;103153.94;;;1.82;89.57
77147;BME280;66121;52.584;9.694;2023-02-10T08:11:06;103159.69;;;1.86;89.54
77147;BME280;66121;52.584;9.694;2023-02-10T08:13:32;103164.84;;;1.87;89.50
77147;BME280;66121;52.584;9.694;2023-02-10T08:15:58;103156.72;;;1.92;88.99
77147;BME280;66121;52.584;9.694;2023-02-10T08:18:23;103163.84;;;2.04;88.83
77147;BME280;66121;52.584;9.694;2023-02-10T08:20:48;103161.72;;;2.16;88.04
77147;BME280;66121;52.584;9.694;2023-02-10T08:23:16;103173.22;;;2.28;88.16
77147;BME280;66121;52.584;9.694;2023-02-10T08:25:41;103165.25;;;2.11;88.25
77147;BME280;66121;52.584;9.694;2023-02-10T08:28:07;103179.47;;;2.23;88.13
77147;BME280;66121;52.584;9.694;2023-02-10T08:30:32;103181.91;;;2.25;87.91
77147;BME280;66121;52.584;9.694;2023-02-10T08:32:57;103179.75;;;2.27;87.58
77147;BME280;66121;52.584;9.694;2023-02-10T08:35:24;103180.34;;;2.39;87.32
77147;BME280;66121;52.584;9.694;2023-02-10T08:37:49;103191.00;;;2.50;87.26
77147;BME280;66121;52.584;9.694;2023-02-10T08:40:15;103186.09;;;2.47;87.68
77147;BME280;66121;52.584;9.694;2023-02-10T08:42:40;103183.13;;;2.49;87.38
77147;BME280;66121;52.584;9.694;2023-02-10T09:18:02;103192.22;;;3.15;84.60
77147;BME280;66121;52.584;9.694;2023-02-10T09:20:28;103194.94;;;3.15;84.73
77147;BME280;66121;52.584;9.694;2023-02-10T09:22:53;103193.03;;;3.15;84.81
77147;BME280;66121;52.584;9.694;2023-02-10T09:25:18;103191.69;;;3.28;84.02
77147;BME280;66121;52.584;9.694;2023-02-10T09:27:44;103195.22;;;3.29;84.60
77147;BME280;66121;52.584;9.694;2023-02-10T09:30:10;103190.56;;;3.34;84.16
77147;BME280;66121;52.584;9.694;2023-02-10T09:32:35;103188.66;;;3.50;83.54
77147;BME280;66121;52.584;9.694;2023-02-10T09:35:00;103209.09;;;3.72;82.82
77147;BME280;66121;52.584;9.694;2023-02-10T09:37:26;103191.53;;;4.14;81.09
77147;BME280;66121;52.584;9.694;2023-02-10T09:39:51;103181.84;;;4.36;80.21
77147;BME280;66121;52.584;9.694;2023-02-10T09:42:31;103193.53;;;5.01;79.28
77147;BME280;66121;52.584;9.694;2023-02-10T09:45:11;103196.56;;;4.94;78.61
77147;BME280;66121;52.584;9.694;2023-02-10T09:48:00;103196.25;;;5.35;77.29
77147;BME280;66121;52.584;9.694;2023-02-10T09:50:54;103202.78;;;5.72;75.18
77147;BME280;66121;52.584;9.694;2023-02-10T09:53:26;103194.41;;;5.59;75.91
77147;BME280;66121;52.584;9.694;2023-02-10T09:55:58;103211.91;;;5.29;75.11
77147;BME280;66121;52.584;9.694;2023-02-10T10:01:22;103208.25;;;6.01;73.55
77147;BME280;66121;52.584;9.694;2023-02-10T10:03:50;103209.72;;;6.17;72.93
77147;BME280;66121;52.584;9.694;2023-02-10T10:06:22;103208.53;;;6.66;72.48
77147;BME280;66121;52.584;9.694;2023-02-10T10:09:03;103208.34;;;6.38;72.14
77147;BME280;66121;52.584;9.694;2023-02-10T10:11:38;103212.94;;;6.85;71.39
77147;BME280;66121;52.584;9.694;2023-02-10T10:14:05;103206.72;;;6.80;70.90
77147;BME280;66121;52.584;9.694;2023-02-10T10:27:55;103231.75;;;6.31;71.88
77147;BME280;66121;52.584;9.694;2023-02-10T10:35:50;103220.84;;;6.26;71.96
77147;BME280;66121;52.584;9.694;2023-02-10T10:38:29;103219.16;;;6.91;71.17
77147;BME280;66121;52.584;9.694;2023-02-10T10:40:58;103204.50;;;7.00;69.42
77147;BME280;66121;52.584;9.694;2023-02-10T10:43:30;103204.78;;;7.18;68.97
77147;BME280;66121;52.584;9.694;2023-02-10T10:46:10;103212.06;;;7.41;69.63
77147;BME280;66121;52.584;9.694;2023-02-10T10:48:40;103206.13;;;7.34;67.62
77147;BME280;66121;52.584;9.694;2023-02-10T10:51:06;103197.81;;;7.39;68.87
77147;BME280;66121;52.584;9.694;2023-02-10T10:53:51;103188.22;;;6.67;70.28
77147;BME280;66121;52.584;9.694;2023-02-10T10:58:45;103166.16;;;7.28;69.81
77147;BME280;66121;52.584;9.694;2023-02-10T11:01:13;103186.09;;;7.33;68.59
77147;BME280;66121;52.584;9.694;2023-02-10T11:03:39;103180.84;;;7.18;69.23
77147;BME280;66121;52.584;9.694;2023-02-10T11:06:14;103191.81;;;7.37;69.24
77147;BME280;66121;52.584;9.694;2023-02-10T11:08:53;103198.25;;;7.92;67.57
77147;BME280;66121;52.584;9.694;2023-02-10T11:11:31;103185.69;;;7.86;66.71
77147;BME280;66121;52.584;9.694;2023-02-10T11:13:57;103186.53;;;7.72;67.19
77147;BME280;66121;52.584;9.694;2023-02-10T11:16:23;103198.34;;;8.14;66.12
77147;BME280;66121;52.584;9.694;2023-02-10T11:18:56;103194.59;;;8.10;66.26
77147;BME280;66121;52.584;9.694;2023-02-10T11:21:36;103194.63;;;7.50;68.51
77147;BME280;66121;52.584;9.694;2023-02-10T11:24:02;103182.59;;;7.46;68.68
77147;BME280;66121;52.584;9.694;2023-02-10T11:26:28;103188.63;;;7.75;68.01
77147;BME280;66121;52.584;9.694;2023-02-10T11:28:54;103175.50;;;7.59;67.37
77147;BME280;66121;52.584;9.694;2023-02-10T11:31:32;103159.31;;;7.57;67.64
77147;BME280;66121;52.584;9.694;2023-02-10T11:34:02;103168.41;;;7.85;67.36
77147;BME280;66121;52.584;9.694;2023-02-10T11:36:34;103168.41;;;7.85;66.96
77147;BME280;66121;52.584;9.694;2023-02-10T11:39:06;103169.44;;;7.89;67.67
77147;BME280;66121;52.584;9.694;2023-02-10T11:41:32;103181.25;;;8.30;66.36
77147;BME280;66121;52.584;9.694;2023-02-10T11:43:59;103177.66;;;8.03;65.43
77147;BME280;66121;52.584;9.694;2023-02-10T11:46:27;103174.31;;;8.06;66.35
77147;BME280;66121;52.584;9.694;2023-02-10T11:49:00;103184.19;;;8.61;65.67
77147;BME280;66121;52.584;9.694;2023-02-10T11:51:26;103181.97;;;8.36;65.25
77147;BME280;66121;52.584;9.694;2023-02-10T11:53:52;103169.09;;;8.18;65.26
77147;BME280;66121;52.584;9.694;2023-02-10T12:01:39;103157.16;;;7.54;66.33
77147;BME280;66121;52.584;9.694;2023-02-10T12:07:26;103166.41;;;6.94;70.02
77147;BME280;66121;52.584;9.694;2023-02-10T12:09:57;103159.28;;;7.11;69.49
77147;BME280;66121;52.584;9.694;2023-02-10T12:12:32;103139.28;;;7.25;68.86
77147;BME280;66121;52.584;9.694;2023-02-10T12:26:36;103153.94;;;7.93;66.19
77147;BME280;66121;52.584;9.694;2023-02-10T12:39:56;103138.50;;;7.05;69.23
77147;BME280;66121;52.584;9.694;2023-02-10T12:45:17;103135.59;;;7.48;68.27
77147;BME280;66121;52.584;9.694;2023-02-10T12:50:33;103121.56;;;7.76;66.56
77147;BME280;66121;52.584;9.694;2023-02-10T12:53:08;103127.00;;;7.22;68.38
77147;BME280;66121;52.584;9.694;2023-02-10T12:58:15;103111.84;;;6.92;69.15
77147;BME280;66121;52.584;9.694;2023-02-10T13:00:48;103108.28;;;6.92;68.19
77147;BME280;66121;52.584;9.694;2023-02-10T13:03:42;103092.78;;;6.82;68.87
77147;BME280;66121;52.584;9.694;2023-02-10T13:09:15;103097.78;;;7.12;67.55
77147;BME280;66121;52.584;9.694;2023-02-10T13:11:58;103100.34;;;6.90;68.24
77147;BME280;66121;52.584;9.694;2023-02-10T13:14:27;103094.59;;;7.51;66.64
77147;BME280;66121;52.584;9.694;2023-02-10T13:16:55;103109.56;;;7.59;65.83
77147;BME280;66121;52.584;9.694;2023-02-10T13:22:04;103092.03;;;7.96;65.08
77147;BME280;66121;52.584;9.694;2023-02-10T13:24:37;103099.78;;;7.94;64.93
77147;BME280;66121;52.584;9.694;2023-02-10T13:27:42;103101.84;;;7.74;65.40
77147;BME280;66121;52.584;9.694;2023-02-10T13:35:44;103091.31;;;8.31;62.93
77147;BME280;66121;52.584;9.694;2023-02-10T13:38:17;103090.09;;;8.37;63.35
77147;BME280;66121;52.584;9.694;2023-02-10T13:40:48;103079.81;;;8.29;63.15
77147;BME280;66121;52.584;9.694;2023-02-10T13:43:30;103072.63;;;8.77;62.48
77147;BME280;66121;52.584;9.694;2023-02-10T13:45:56;103072.28;;;8.57;62.59
77147;BME280;66121;52.584;9.694;2023-02-10T13:48:27;103074.84;;;8.53;62.08
77147;BME280;66121;52.584;9.694;2023-02-10T13:50:57;103072.91;;;8.04;62.37
77147;BME280;66121;52.584;9.694;2023-02-10T13:59:05;103077.19;;;7.97;63.49
77147;BME280;66121;52.584;9.694;2023-02-10T14:04:43;103065.09;;;7.57;65.00
77147;BME280;66121;52.584;9.694;2023-02-10T14:12:53;103068.84;;;7.01;66.87
77147;BME280;66121;52.584;9.694;2023-02-10T14:15:26;103049.78;;;6.78;66.94
77147;BME280;66121;52.584;9.694;2023-02-10T14:17:55;103046.41;;;6.67;67.73
77147;BME280;66121;52.584;9.694;2023-02-10T14:20:26;103044.41;;;6.73;67.91
77147;BME280;66121;52.584;9.694;2023-02-10T14:22:52;103039.09;;;6.76;68.15
77147;BME280;66121;52.584;9.694;2023-02-10T14:25:31;103048.56;;;6.52;68.38
77147;BME280;66121;52.584;9.694;2023-02-10T14:27:58;103029.25;;;6.43;68.50
77147;BME280;66121;52.584;9.694;2023-02-10T14:30:39;103040.13;;;6.48;68.66
77147;BME280;66121;52.584;9.694;2023-02-10T14:33:15;103021.44;;;6.31;68.98
77147;BME280;66121;52.584;9.694;2023-02-10T14:35:48;103008.34;;;6.10;69.15
77147;BME280;66121;52.584;9.694;2023-02-10T14:38:25;103027.03;;;6.08;70.14
77147;BME280;66121;52.584;9.694;2023-02-10T14:40:52;103015.75;;;6.09;70.21
77147;BME280;66121;52.584;9.694;2023-02-10T14:43:21;103023.31;;;6.17;70.01
77147;BME280;66121;52.584;9.694;2023-02-10T14:45:47;103032.81;;;6.25;70.20
77147;BME280;66121;52.584;9.694;2023-02-10T14:48:14;103017.84;;;6.17;70.01
77147;BME280;66121;52.584;9.694;2023-02-10T14:50:40;103031.31;;;6.14;70.87
77147;BME280;66121;52.584;9.694;2023-02-10T14:53:16;103032.41;;;5.94;71.27
77147;BME280;66121;52.584;9.694;2023-02-10T14:55:42;103018.81;;;5.84;71.54
77147;BME280;66121;52.584;9.694;2023-02-10T15:00:34;103024.66;;;5.77;72.32
77147;BME280;66121;52.584;9.694;2023-02-10T15:03:02;103023.00;;;5.76;71.98
77147;BME280;66121;52.584;9.694;2023-02-10T15:05:35;103028.44;;;5.81;71.15
77147;BME280;66121;52.584;9.694;2023-02-10T15:08:03;103027.22;;;5.69;71.55
77147;BME280;66121;52.584;9.694;2023-02-10T15:10:41;103020.28;;;5.76;71.81
77147;BME280;66121;52.584;9.694;2023-02-10T15:13:09;103018.34;;;5.77;71.54
77147;BME280;66121;52.584;9.694;2023-02-10T15:15:39;103011.22;;;5.76;71.22
77147;BME280;66121;52.584;9.694;2023-02-10T15:18:11;103001.22;;;5.66;71.35
77147;BME280;66121;52.584;9.694;2023-02-10T15:20:38;103009.38;;;5.71;71.48
77147;BME280;66121;52.584;9.694;2023-02-10T15:23:16;103001.22;;;5.66;71.54
77147;BME280;66121;52.584;9.694;2023-02-10T15:25:42;103002.94;;;5.81;71.29